sensor_id;sensor_type;location;lat;lon;timestamp;P1;durP1;ratioP1;P2;durP2;ratioP2
74577;SDS011;63173;49.086;33.418;2023-12-20T00:02:11;27.65;;;11.55;;
74577;SDS011;63173;49.086;33.418;2023-12-20T00:04:36;25.83;;;12.18;;
74577;SDS011;63173;49.086;33.418;2023-12-20T00:07:01;21.58;;;9.98;;
74577;SDS011;63173;49.086;33.418;2023-12-20T00:09:27;25.95;;;12.82;;
74577;SDS011;63173;49.086;33.418;2023-12-20T00:11:53;27.42;;;11.80;;
74577;SDS011;63173;49.086;33.418;2023-12-20T00:14:18;27.45;;;12.30;;
74577;SDS011;63173;49.086;33.418;2023-12-20T00:16:43;28.25;;;12.13;;
74577;SDS011;63173;49.086;33.418;2023-12-20T00:19:09;24.92;;;11.20;;
74577;SDS011;63173;49.086;33.418;2023-12-20T00:21:34;26.50;;;11.65;;
74577;SDS011;63173;49.086;33.418;2023-12-20T00:24:00;24.52;;;10.90;;
74577;SDS011;63173;49.086;33.418;2023-12-20T00:26:25;26.15;;;11.57;;
74577;SDS011;63173;49.086;33.418;2023-12-20T00:28:51;23.48;;;10.77;;
74577;SDS011;63173;49.086;33.418;2023-12-20T00:31:16;22.52;;;10.50;;
74577;SDS011;63173;49.086;33.418;2023-12-20T00:33:42;24.67;;;11.80;;
74577;SDS011;63173;49.086;33.418;2023-12-20T00:36:08;25.75;;;11.13;;
74577;SDS011;63173;49.086;33.418;2023-12-20T00:38:34;25.23;;;12.02;;
74577;SDS011;63173;49.086;33.418;2023-12-20T00:41:00;20.13;;;9.05;;
74577;SDS011;63173;49.086;33.418;2023-12-20T00:43:25;21.90;;;10.85;;
74577;SDS011;63173;49.086;33.418;2023-12-20T00:45:51;27.33;;;11.00;;
74577;SDS011;63173;49.086;33.418;2023-12-20T00:48:17;27.70;;;13.07;;
74577;SDS011;63173;49.086;33.418;2023-12-20T00:50:42;29.88;;;11.48;;
74577;SDS011;63173;49.086;33.418;2023-12-20T00:53:08;26.02;;;12.32;;
74577;SDS011;63173;49.086;33.418;2023-12-20T00:55:33;22.08;;;9.80;;
74577;SDS011;63173;49.086;33.418;2023-12-20T00:57:58;26.92;;;12.05;;
74577;SDS011;63173;49.086;33.418;2023-12-20T01:00:25;24.92;;;10.57;;
74577;SDS011;63173;49.086;33.418;2023-12-20T01:02:50;24.58;;;12.35;;
74577;SDS011;63173;49.086;33.418;2023-12-20T01:05:16;27.90;;;13.60;;
74577;SDS011;63173;49.086;33.418;2023-12-20T01:07:43;32.83;;;14.95;;
74577;SDS011;63173;49.086;33.418;2023-12-20T01:10:08;28.27;;;12.65;;
74577;SDS011;63173;49.086;33.418;2023-12-20T01:12:35;23.80;;;11.27;;
74577;SDS011;63173;49.086;33.418;2023-12-20T01:15:01;31.35;;;13.80;;
74577;SDS011;63173;49.086;33.418;2023-12-20T01:17:27;32.33;;;14.30;;
74577;SDS011;63173;49.086;33.418;2023-12-20T01:19:52;29.73;;;13.30;;
74577;SDS011;63173;49.086;33.418;2023-12-20T01:22:18;30.13;;;12.52;;
74577;SDS011;63173;49.086;33.418;2023-12-20T01:24:44;32.35;;;14.85;;
74577;SDS011;63173;49.086;33.418;2023-12-20T01:27:09;28.55;;;12.95;;
74577;SDS011;63173;49.086;33.418;2023-12-20T01:29:34;32.20;;;15.07;;
74577;SDS011;63173;49.086;33.418;2023-12-20T01:32:00;30.50;;;13.07;;
74577;SDS011;63173;49.086;33.418;2023-12-20T01:34:26;31.30;;;14.00;;
74577;SDS011;63173;49.086;33.418;2023-12-20T01:36:51;31.73;;;14.15;;
74577;SDS011;63173;49.086;33.418;2023-12-20T01:39:17;33.85;;;15.35;;
74577;SDS011;63173;49.086;33.418;2023-12-20T01:41:42;31.17;;;13.30;;
74577;SDS011;63173;49.086;33.418;2023-12-20T01:44:08;31.83;;;14.35;;
74577;SDS011;63173;49.086;33.418;2023-12-20T01:46:33;25.85;;;9.27;;
74577;SDS011;63173;49.086;33.418;2023-12-20T01:48:59;33.47;;;14.23;;
74577;SDS011;63173;49.086;33.418;2023-12-20T01:51:24;30.80;;;13.85;;
74577;SDS011;63173;49.086;33.418;2023-12-20T01:53:52;26.02;;;11.13;;
74577;SDS011;63173;49.086;33.418;2023-12-20T01:56:19;33.30;;;13.50;;
74577;SDS011;63173;49.086;33.418;2023-12-20T01:58:45;26.25;;;9.88;;
74577;SDS011;63173;49.086;33.418;2023-12-20T02:01:12;32.80;;;14.88;;
74577;SDS011;63173;49.086;33.418;2023-12-20T02:03:39;35.25;;;15.10;;
74577;SDS011;63173;49.086;33.418;2023-12-20T02:06:08;34.17;;;14.05;;
74577;SDS011;63173;49.086;33.418;2023-12-20T02:08:34;31.50;;;14.38;;
74577;SDS011;63173;49.086;33.418;2023-12-20T02:11:00;29.77;;;13.38;;
74577;SDS011;63173;49.086;33.418;2023-12-20T02:13:26;33.35;;;14.60;;
74577;SDS011;63173;49.086;33.418;2023-12-20T02:15:52;33.55;;;12.55;;
74577;SDS011;63173;49.086;33.418;2023-12-20T02:18:17;27.65;;;12.55;;
74577;SDS011;63173;49.086;33.418;2023-12-20T02:20:43;31.02;;;14.82;;
74577;SDS011;63173;49.086;33.418;2023-12-20T02:23:08;35.15;;;13.95;;
74577;SDS011;63173;49.086;33.418;2023-12-20T02:25:34;36.50;;;15.25;;
74577;SDS011;63173;49.086;33.418;2023-12-20T02:27:59;28.83;;;13.70;;
74577;SDS011;63173;49.086;33.418;2023-12-20T02:30:26;33.35;;;15.40;;
74577;SDS011;63173;49.086;33.418;2023-12-20T02:32:52;35.15;;;15.75;;
74577;SDS011;63173;49.086;33.418;2023-12-20T02:35:18;36.85;;;15.50;;
74577;SDS011;63173;49.086;33.418;2023-12-20T02:37:43;40.90;;;18.00;;
74577;SDS011;63173;49.086;33.418;2023-12-20T02:40:09;34.67;;;15.35;;
74577;SDS011;63173;49.086;33.418;2023-12-20T02:42:35;39.45;;;16.80;;
74577;SDS011;63173;49.086;33.418;2023-12-20T02:45:00;41.72;;;19.38;;
74577;SDS011;63173;49.086;33.418;2023-12-20T02:47:26;36.95;;;17.98;;
74577;SDS011;63173;49.086;33.418;2023-12-20T02:49:51;32.10;;;14.00;;
74577;SDS011;63173;49.086;33.418;2023-12-20T02:52:18;35.83;;;14.20;;
74577;SDS011;63173;49.086;33.418;2023-12-20T02:54:43;36.20;;;16.30;;
74577;SDS011;63173;49.086;33.418;2023-12-20T02:57:08;35.60;;;14.98;;
74577;SDS011;63173;49.086;33.418;2023-12-20T02:59:34;37.95;;;17.05;;
74577;SDS011;63173;49.086;33.418;2023-12-20T03:01:59;34.15;;;15.13;;
74577;SDS011;63173;49.086;33.418;2023-12-20T03:06:50;35.03;;;14.85;;
74577;SDS011;63173;49.086;33.418;2023-12-20T03:09:16;32.60;;;15.38;;
74577;SDS011;63173;49.086;33.418;2023-12-20T03:22:00;32.45;;;14.95;;
74577;SDS011;63173;49.086;33.418;2023-12-20T03:24:26;35.53;;;16.52;;
74577;SDS011;63173;49.086;33.418;2023-12-20T03:26:51;36.45;;;17.15;;
74577;SDS011;63173;49.086;33.418;2023-12-20T03:29:17;33.13;;;12.88;;
74577;SDS011;63173;49.086;33.418;2023-12-20T03:31:42;39.13;;;15.77;;
74577;SDS011;63173;49.086;33.418;2023-12-20T03:34:08;37.35;;;14.80;;
74577;SDS011;63173;49.086;33.418;2023-12-20T03:36:33;36.17;;;16.10;;
74577;SDS011;63173;49.086;33.418;2023-12-20T03:38:58;38.38;;;17.92;;
74577;SDS011;63173;49.086;33.418;2023-12-20T03:41:24;27.98;;;12.73;;
74577;SDS011;63173;49.086;33.418;2023-12-20T03:43:49;36.35;;;16.52;;
74577;SDS011;63173;49.086;33.418;2023-12-20T03:46:15;36.72;;;17.02;;
74577;SDS011;63173;49.086;33.418;2023-12-20T03:48:40;39.38;;;17.45;;
74577;SDS011;63173;49.086;33.418;2023-12-20T03:51:06;41.20;;;16.30;;
74577;SDS011;63173;49.086;33.418;2023-12-20T03:53:31;42.35;;;17.27;;
74577;SDS011;63173;49.086;33.418;2023-12-20T03:55:56;33.05;;;15.35;;
74577;SDS011;63173;49.086;33.418;2023-12-20T03:58:22;46.45;;;18.85;;
74577;SDS011;63173;49.086;33.418;2023-12-20T04:00:47;41.42;;;17.45;;
74577;SDS011;63173;49.086;33.418;2023-12-20T04:03:13;41.78;;;16.67;;
74577;SDS011;63173;49.086;33.418;2023-12-20T04:05:40;41.22;;;17.40;;
74577;SDS011;63173;49.086;33.418;2023-12-20T04:08:05;37.45;;;16.02;;
74577;SDS011;63173;49.086;33.418;2023-12-20T04:10:31;39.80;;;16.30;;
74577;SDS011;63173;49.086;33.418;2023-12-20T04:12:56;43.28;;;17.50;;
74577;SDS011;63173;49.086;33.418;2023-12-20T04:15:21;36.88;;;16.30;;
74577;SDS011;63173;49.086;33.418;2023-12-20T04:17:47;38.22;;;16.27;;
74577;SDS011;63173;49.086;33.418;2023-12-20T04:20:12;38.08;;;17.35;;
74577;SDS011;63173;49.086;33.418;2023-12-20T04:22:38;38.67;;;17.05;;
74577;SDS011;63173;49.086;33.418;2023-12-20T04:25:03;44.85;;;17.77;;
74577;SDS011;63173;49.086;33.418;2023-12-20T04:27:29;40.47;;;18.60;;
74577;SDS011;63173;49.086;33.418;2023-12-20T04:29:54;39.88;;;16.27;;
74577;SDS011;63173;49.086;33.418;2023-12-20T04:32:20;38.42;;;17.70;;
74577;SDS011;63173;49.086;33.418;2023-12-20T04:34:45;41.88;;;17.08;;
74577;SDS011;63173;49.086;33.418;2023-12-20T04:37:11;27.45;;;12.13;;
74577;SDS011;63173;49.086;33.418;2023-12-20T04:39:37;36.92;;;15.93;;
74577;SDS011;63173;49.086;33.418;2023-12-20T04:42:02;37.20;;;15.88;;
74577;SDS011;63173;49.086;33.418;2023-12-20T04:44:28;35.00;;;15.50;;
74577;SDS011;63173;49.086;33.418;2023-12-20T04:46:53;40.65;;;16.63;;
74577;SDS011;63173;49.086;33.418;2023-12-20T04:49:19;43.70;;;17.80;;
74577;SDS011;63173;49.086;33.418;2023-12-20T04:51:44;40.58;;;16.95;;
74577;SDS011;63173;49.086;33.418;2023-12-20T04:54:10;41.75;;;16.38;;
74577;SDS011;63173;49.086;33.418;2023-12-20T04:56:35;39.40;;;15.90;;
74577;SDS011;63173;49.086;33.418;2023-12-20T04:59:01;40.40;;;16.80;;
74577;SDS011;63173;49.086;33.418;2023-12-20T05:01:26;34.55;;;15.30;;
74577;SDS011;63173;49.086;33.418;2023-12-20T05:03:52;40.40;;;18.17;;
74577;SDS011;63173;49.086;33.418;2023-12-20T05:06:17;38.55;;;17.88;;
74577;SDS011;63173;49.086;33.418;2023-12-20T05:08:42;41.40;;;16.15;;
74577;SDS011;63173;49.086;33.418;2023-12-20T05:11:08;28.65;;;13.57;;
74577;SDS011;63173;49.086;33.418;2023-12-20T05:13:33;33.20;;;15.25;;
74577;SDS011;63173;49.086;33.418;2023-12-20T05:15:59;36.50;;;15.73;;
74577;SDS011;63173;49.086;33.418;2023-12-20T05:18:24;39.90;;;17.20;;
74577;SDS011;63173;49.086;33.418;2023-12-20T05:20:50;37.20;;;15.77;;
74577;SDS011;63173;49.086;33.418;2023-12-20T05:23:16;44.92;;;19.52;;
74577;SDS011;63173;49.086;33.418;2023-12-20T05:25:42;38.00;;;17.30;;
74577;SDS011;63173;49.086;33.418;2023-12-20T05:28:07;39.47;;;16.90;;
74577;SDS011;63173;49.086;33.418;2023-12-20T05:30:33;42.88;;;18.40;;
74577;SDS011;63173;49.086;33.418;2023-12-20T05:32:58;38.88;;;16.17;;
74577;SDS011;63173;49.086;33.418;2023-12-20T05:35:24;35.38;;;14.45;;
74577;SDS011;63173;49.086;33.418;2023-12-20T05:37:49;35.15;;;13.57;;
74577;SDS011;63173;49.086;33.418;2023-12-20T05:40:15;37.05;;;17.25;;
74577;SDS011;63173;49.086;33.418;2023-12-20T05:42:40;39.58;;;16.92;;
74577;SDS011;63173;49.086;33.418;2023-12-20T05:45:06;35.60;;;15.63;;
74577;SDS011;63173;49.086;33.418;2023-12-20T05:47:31;30.88;;;11.75;;
74577;SDS011;63173;49.086;33.418;2023-12-20T05:49:57;30.52;;;13.73;;
74577;SDS011;63173;49.086;33.418;2023-12-20T05:52:22;27.63;;;12.63;;
74577;SDS011;63173;49.086;33.418;2023-12-20T05:54:48;31.85;;;13.82;;
74577;SDS011;63173;49.086;33.418;2023-12-20T05:57:13;39.78;;;16.15;;
74577;SDS011;63173;49.086;33.418;2023-12-20T05:59:39;34.30;;;15.75;;
74577;SDS011;63173;49.086;33.418;2023-12-20T06:02:05;31.52;;;13.32;;
74577;SDS011;63173;49.086;33.418;2023-12-20T06:04:31;29.50;;;12.18;;
74577;SDS011;63173;49.086;33.418;2023-12-20T06:06:56;25.13;;;11.02;;
74577;SDS011;63173;49.086;33.418;2023-12-20T06:09:22;22.67;;;9.93;;
74577;SDS011;63173;49.086;33.418;2023-12-20T06:11:47;28.98;;;13.05;;
74577;SDS011;63173;49.086;33.418;2023-12-20T06:14:13;29.13;;;13.07;;
74577;SDS011;63173;49.086;33.418;2023-12-20T06:16:38;29.48;;;10.07;;
74577;SDS011;63173;49.086;33.418;2023-12-20T06:19:04;30.02;;;13.13;;
74577;SDS011;63173;49.086;33.418;2023-12-20T06:21:29;18.67;;;9.48;;
74577;SDS011;63173;49.086;33.418;2023-12-20T06:23:55;34.78;;;14.32;;
74577;SDS011;63173;49.086;33.418;2023-12-20T06:26:20;37.55;;;15.88;;
74577;SDS011;63173;49.086;33.418;2023-12-20T06:28:45;37.55;;;15.65;;
74577;SDS011;63173;49.086;33.418;2023-12-20T06:31:11;32.75;;;14.35;;
74577;SDS011;63173;49.086;33.418;2023-12-20T06:33:36;34.78;;;14.63;;
74577;SDS011;63173;49.086;33.418;2023-12-20T06:36:02;40.50;;;19.30;;
74577;SDS011;63173;49.086;33.418;2023-12-20T06:38:28;28.83;;;11.05;;
74577;SDS011;63173;49.086;33.418;2023-12-20T06:40:53;28.42;;;12.45;;
74577;SDS011;63173;49.086;33.418;2023-12-20T06:43:19;35.08;;;15.18;;
74577;SDS011;63173;49.086;33.418;2023-12-20T06:45:44;35.92;;;16.00;;
74577;SDS011;63173;49.086;33.418;2023-12-20T06:48:10;34.20;;;15.13;;
74577;SDS011;63173;49.086;33.418;2023-12-20T06:50:37;29.05;;;13.35;;
74577;SDS011;63173;49.086;33.418;2023-12-20T06:53:05;33.45;;;14.45;;
74577;SDS011;63173;49.086;33.418;2023-12-20T06:55:31;31.33;;;14.00;;
74577;SDS011;63173;49.086;33.418;2023-12-20T06:57:58;31.38;;;14.98;;
74577;SDS011;63173;49.086;33.418;2023-12-20T07:00:23;33.15;;;15.35;;
74577;SDS011;63173;49.086;33.418;2023-12-20T07:02:48;21.60;;;10.20;;
74577;SDS011;63173;49.086;33.418;2023-12-20T07:05:16;27.05;;;12.18;;
74577;SDS011;63173;49.086;33.418;2023-12-20T07:07:44;27.17;;;12.10;;
74577;SDS011;63173;49.086;33.418;2023-12-20T07:10:10;27.10;;;12.02;;
74577;SDS011;63173;49.086;33.418;2023-12-20T07:12:36;22.02;;;10.43;;
74577;SDS011;63173;49.086;33.418;2023-12-20T07:15:01;25.73;;;12.60;;
74577;SDS011;63173;49.086;33.418;2023-12-20T07:17:27;27.63;;;12.85;;
74577;SDS011;63173;49.086;33.418;2023-12-20T07:19:52;28.65;;;14.43;;
74577;SDS011;63173;49.086;33.418;2023-12-20T07:22:18;29.25;;;12.55;;
74577;SDS011;63173;49.086;33.418;2023-12-20T07:24:43;23.80;;;10.55;;
74577;SDS011;63173;49.086;33.418;2023-12-20T07:27:09;24.52;;;10.90;;
74577;SDS011;63173;49.086;33.418;2023-12-20T07:29:34;20.77;;;9.85;;
74577;SDS011;63173;49.086;33.418;2023-12-20T07:32:00;25.73;;;11.63;;
74577;SDS011;63173;49.086;33.418;2023-12-20T07:34:25;26.52;;;11.73;;
74577;SDS011;63173;49.086;33.418;2023-12-20T07:36:50;29.10;;;12.77;;
74577;SDS011;63173;49.086;33.418;2023-12-20T07:39:16;24.80;;;12.15;;
74577;SDS011;63173;49.086;33.418;2023-12-20T07:41:41;22.75;;;9.43;;
74577;SDS011;63173;49.086;33.418;2023-12-20T07:44:07;24.75;;;11.68;;
74577;SDS011;63173;49.086;33.418;2023-12-20T07:46:32;22.23;;;10.10;;
74577;SDS011;63173;49.086;33.418;2023-12-20T07:48:58;23.73;;;11.63;;
74577;SDS011;63173;49.086;33.418;2023-12-20T07:51:23;22.50;;;11.23;;
74577;SDS011;63173;49.086;33.418;2023-12-20T07:53:49;18.80;;;9.10;;
74577;SDS011;63173;49.086;33.418;2023-12-20T07:56:17;22.20;;;10.25;;
74577;SDS011;63173;49.086;33.418;2023-12-20T07:58:44;22.17;;;11.52;;
74577;SDS011;63173;49.086;33.418;2023-12-20T08:01:11;28.45;;;11.30;;
74577;SDS011;63173;49.086;33.418;2023-12-20T08:03:37;23.55;;;10.63;;
74577;SDS011;63173;49.086;33.418;2023-12-20T08:06:03;20.17;;;10.02;;
74577;SDS011;63173;49.086;33.418;2023-12-20T08:08:29;21.88;;;10.18;;
74577;SDS011;63173;49.086;33.418;2023-12-20T08:10:55;20.27;;;9.52;;
74577;SDS011;63173;49.086;33.418;2023-12-20T08:13:22;22.27;;;10.20;;
74577;SDS011;63173;49.086;33.418;2023-12-20T08:15:51;20.67;;;8.82;;
74577;SDS011;63173;49.086;33.418;2023-12-20T08:18:17;22.80;;;10.43;;
74577;SDS011;63173;49.086;33.418;2023-12-20T08:20:42;23.30;;;10.77;;
74577;SDS011;63173;49.086;33.418;2023-12-20T08:23:07;21.58;;;10.70;;
74577;SDS011;63173;49.086;33.418;2023-12-20T08:25:33;18.42;;;9.15;;
74577;SDS011;63173;49.086;33.418;2023-12-20T08:27:58;22.27;;;10.52;;
74577;SDS011;63173;49.086;33.418;2023-12-20T08:30:24;22.92;;;10.85;;
74577;SDS011;63173;49.086;33.418;2023-12-20T08:32:50;21.15;;;10.00;;
74577;SDS011;63173;49.086;33.418;2023-12-20T08:35:16;20.55;;;9.82;;
74577;SDS011;63173;49.086;33.418;2023-12-20T08:37:43;23.85;;;10.82;;
74577;SDS011;63173;49.086;33.418;2023-12-20T08:40:08;21.45;;;10.25;;
74577;SDS011;63173;49.086;33.418;2023-12-20T08:42:34;23.08;;;10.82;;
74577;SDS011;63173;49.086;33.418;2023-12-20T08:45:00;22.85;;;11.45;;
74577;SDS011;63173;49.086;33.418;2023-12-20T08:47:25;19.70;;;10.05;;
74577;SDS011;63173;49.086;33.418;2023-12-20T08:49:52;18.25;;;8.77;;
74577;SDS011;63173;49.086;33.418;2023-12-20T08:52:23;25.30;;;9.93;;
74577;SDS011;63173;49.086;33.418;2023-12-20T08:54:49;24.83;;;11.05;;
74577;SDS011;63173;49.086;33.418;2023-12-20T08:57:17;20.92;;;8.18;;
74577;SDS011;63173;49.086;33.418;2023-12-20T08:59:45;24.83;;;11.23;;
74577;SDS011;63173;49.086;33.418;2023-12-20T09:02:11;25.05;;;12.27;;
74577;SDS011;63173;49.086;33.418;2023-12-20T09:04:36;24.17;;;10.68;;
74577;SDS011;63173;49.086;33.418;2023-12-20T09:07:02;23.45;;;10.55;;
74577;SDS011;63173;49.086;33.418;2023-12-20T09:09:27;14.90;;;7.55;;
74577;SDS011;63173;49.086;33.418;2023-12-20T09:11:53;26.02;;;11.57;;
74577;SDS011;63173;49.086;33.418;2023-12-20T09:14:19;20.70;;;9.57;;
74577;SDS011;63173;49.086;33.418;2023-12-20T09:16:44;23.23;;;10.70;;
74577;SDS011;63173;49.086;33.418;2023-12-20T09:19:09;20.33;;;10.52;;
74577;SDS011;63173;49.086;33.418;2023-12-20T09:21:35;20.77;;;9.20;;
74577;SDS011;63173;49.086;33.418;2023-12-20T09:24:00;19.98;;;8.23;;
74577;SDS011;63173;49.086;33.418;2023-12-20T09:26:26;19.73;;;9.32;;
74577;SDS011;63173;49.086;33.418;2023-12-20T09:28:51;18.13;;;8.18;;
74577;SDS011;63173;49.086;33.418;2023-12-20T09:31:17;29.00;;;12.38;;
74577;SDS011;63173;49.086;33.418;2023-12-20T09:33:42;20.40;;;10.13;;
74577;SDS011;63173;49.086;33.418;2023-12-20T09:36:07;24.98;;;11.65;;
74577;SDS011;63173;49.086;33.418;2023-12-20T09:38:33;15.15;;;7.22;;
74577;SDS011;63173;49.086;33.418;2023-12-20T09:40:58;23.55;;;11.98;;
74577;SDS011;63173;49.086;33.418;2023-12-20T09:43:24;22.42;;;11.68;;
74577;SDS011;63173;49.086;33.418;2023-12-20T09:45:54;22.90;;;11.45;;
74577;SDS011;63173;49.086;33.418;2023-12-20T09:48:27;21.92;;;10.88;;
74577;SDS011;63173;49.086;33.418;2023-12-20T09:50:53;25.17;;;12.00;;
74577;SDS011;63173;49.086;33.418;2023-12-20T09:53:18;20.30;;;9.85;;
74577;SDS011;63173;49.086;33.418;2023-12-20T09:55:44;22.42;;;11.35;;
74577;SDS011;63173;49.086;33.418;2023-12-20T09:58:10;24.58;;;12.73;;
74577;SDS011;63173;49.086;33.418;2023-12-20T10:00:35;22.27;;;12.10;;
74577;SDS011;63173;49.086;33.418;2023-12-20T10:03:01;26.55;;;11.63;;
74577;SDS011;63173;49.086;33.418;2023-12-20T10:05:27;22.35;;;10.65;;
74577;SDS011;63173;49.086;33.418;2023-12-20T10:07:54;25.15;;;12.07;;
74577;SDS011;63173;49.086;33.418;2023-12-20T10:10:19;19.38;;;8.50;;
74577;SDS011;63173;49.086;33.418;2023-12-20T10:13:07;18.15;;;9.77;;
74577;SDS011;63173;49.086;33.418;2023-12-20T10:15:35;22.92;;;10.65;;
74577;SDS011;63173;49.086;33.418;2023-12-20T10:18:01;22.08;;;9.93;;
74577;SDS011;63173;49.086;33.418;2023-12-20T10:20:28;19.42;;;8.57;;
74577;SDS011;63173;49.086;33.418;2023-12-20T10:22:54;17.98;;;8.00;;
74577;SDS011;63173;49.086;33.418;2023-12-20T10:25:21;18.42;;;9.43;;
74577;SDS011;63173;49.086;33.418;2023-12-20T10:27:46;22.75;;;10.98;;
74577;SDS011;63173;49.086;33.418;2023-12-20T10:30:12;21.10;;;10.50;;
74577;SDS011;63173;49.086;33.418;2023-12-20T10:32:39;20.70;;;10.68;;
74577;SDS011;63173;49.086;33.418;2023-12-20T10:35:05;21.48;;;10.10;;
74577;SDS011;63173;49.086;33.418;2023-12-20T10:37:34;17.27;;;9.52;;
74577;SDS011;63173;49.086;33.418;2023-12-20T10:40:01;19.42;;;10.30;;
74577;SDS011;63173;49.086;33.418;2023-12-20T10:42:29;17.17;;;9.02;;
74577;SDS011;63173;49.086;33.418;2023-12-20T10:44:55;19.50;;;9.75;;
74577;SDS011;63173;49.086;33.418;2023-12-20T10:47:21;19.08;;;10.00;;
74577;SDS011;63173;49.086;33.418;2023-12-20T10:49:47;18.55;;;10.02;;
74577;SDS011;63173;49.086;33.418;2023-12-20T10:52:14;18.95;;;10.05;;
74577;SDS011;63173;49.086;33.418;2023-12-20T10:54:41;18.88;;;9.35;;
74577;SDS011;63173;49.086;33.418;2023-12-20T10:57:07;21.98;;;9.43;;
74577;SDS011;63173;49.086;33.418;2023-12-20T10:59:35;17.08;;;8.85;;
74577;SDS011;63173;49.086;33.418;2023-12-20T11:02:05;19.27;;;9.45;;
74577;SDS011;63173;49.086;33.418;2023-12-20T11:04:35;17.52;;;9.13;;
74577;SDS011;63173;49.086;33.418;2023-12-20T11:07:17;18.23;;;8.80;;
74577;SDS011;63173;49.086;33.418;2023-12-20T11:09:52;15.80;;;7.75;;
74577;SDS011;63173;49.086;33.418;2023-12-20T11:14:59;12.68;;;6.70;;
74577;SDS011;63173;49.086;33.418;2023-12-20T11:17:29;17.40;;;6.95;;
74577;SDS011;63173;49.086;33.418;2023-12-20T11:22:20;14.98;;;8.35;;
74577;SDS011;63173;49.086;33.418;2023-12-20T11:24:46;15.10;;;7.65;;
74577;SDS011;63173;49.086;33.418;2023-12-20T11:27:13;14.57;;;7.50;;
74577;SDS011;63173;49.086;33.418;2023-12-20T11:29:38;13.65;;;7.03;;
74577;SDS011;63173;49.086;33.418;2023-12-20T11:32:28;12.30;;;6.55;;
74577;SDS011;63173;49.086;33.418;2023-12-20T11:34:58;17.42;;;7.80;;
74577;SDS011;63173;49.086;33.418;2023-12-20T11:37:32;13.15;;;6.88;;
74577;SDS011;63173;49.086;33.418;2023-12-20T11:40:02;12.93;;;7.07;;
74577;SDS011;63173;49.086;33.418;2023-12-20T11:42:33;14.45;;;6.53;;
74577;SDS011;63173;49.086;33.418;2023-12-20T11:45:03;16.63;;;8.38;;
74577;SDS011;63173;49.086;33.418;2023-12-20T11:47:29;11.77;;;6.65;;
74577;SDS011;63173;49.086;33.418;2023-12-20T11:49:56;17.17;;;8.70;;
74577;SDS011;63173;49.086;33.418;2023-12-20T11:52:22;16.95;;;9.30;;
74577;SDS011;63173;49.086;33.418;2023-12-20T11:54:47;14.48;;;8.02;;
74577;SDS011;63173;49.086;33.418;2023-12-20T11:57:13;14.15;;;7.20;;
74577;SDS011;63173;49.086;33.418;2023-12-20T11:59:38;12.95;;;7.57;;
74577;SDS011;63173;49.086;33.418;2023-12-20T12:02:04;13.18;;;6.78;;
74577;SDS011;63173;49.086;33.418;2023-12-20T12:04:29;15.70;;;8.20;;
74577;SDS011;63173;49.086;33.418;2023-12-20T12:06:55;17.90;;;7.82;;
74577;SDS011;63173;49.086;33.418;2023-12-20T12:09:20;21.60;;;8.88;;
74577;SDS011;63173;49.086;33.418;2023-12-20T12:11:46;12.68;;;7.07;;
74577;SDS011;63173;49.086;33.418;2023-12-20T12:14:11;14.32;;;7.03;;
74577;SDS011;63173;49.086;33.418;2023-12-20T12:16:37;12.38;;;6.47;;
74577;SDS011;63173;49.086;33.418;2023-12-20T12:19:03;12.18;;;6.97;;
74577;SDS011;63173;49.086;33.418;2023-12-20T12:21:29;13.48;;;7.03;;
74577;SDS011;63173;49.086;33.418;2023-12-20T12:24:03;17.17;;;8.90;;
74577;SDS011;63173;49.086;33.418;2023-12-20T12:26:31;11.73;;;6.78;;
74577;SDS011;63173;49.086;33.418;2023-12-20T12:28:57;14.85;;;7.32;;
74577;SDS011;63173;49.086;33.418;2023-12-20T12:31:22;12.10;;;6.65;;
74577;SDS011;63173;49.086;33.418;2023-12-20T12:33:50;13.60;;;7.63;;
74577;SDS011;63173;49.086;33.418;2023-12-20T12:36:16;19.48;;;7.90;;
74577;SDS011;63173;49.086;33.418;2023-12-20T12:38:42;13.75;;;6.65;;
74577;SDS011;63173;49.086;33.418;2023-12-20T12:41:08;13.15;;;6.60;;
74577;SDS011;63173;49.086;33.418;2023-12-20T12:43:35;14.18;;;6.50;;
74577;SDS011;63173;49.086;33.418;2023-12-20T12:46:00;13.70;;;6.57;;
74577;SDS011;63173;49.086;33.418;2023-12-20T12:48:26;23.40;;;12.18;;
74577;SDS011;63173;49.086;33.418;2023-12-20T12:50:53;13.80;;;7.00;;
74577;SDS011;63173;49.086;33.418;2023-12-20T12:53:19;12.80;;;6.28;;
74577;SDS011;63173;49.086;33.418;2023-12-20T12:55:45;13.73;;;6.70;;
74577;SDS011;63173;49.086;33.418;2023-12-20T12:58:11;11.45;;;6.38;;
74577;SDS011;63173;49.086;33.418;2023-12-20T13:00:36;15.27;;;7.85;;
74577;SDS011;63173;49.086;33.418;2023-12-20T13:03:02;18.75;;;9.88;;
74577;SDS011;63173;49.086;33.418;2023-12-20T13:05:28;11.70;;;6.35;;
74577;SDS011;63173;49.086;33.418;2023-12-20T13:07:54;11.55;;;7.05;;
74577;SDS011;63173;49.086;33.418;2023-12-20T13:10:20;15.65;;;8.55;;
74577;SDS011;63173;49.086;33.418;2023-12-20T13:12:45;13.90;;;7.55;;
74577;SDS011;63173;49.086;33.418;2023-12-20T13:15:11;14.45;;;6.93;;
74577;SDS011;63173;49.086;33.418;2023-12-20T13:17:36;18.45;;;8.23;;
74577;SDS011;63173;49.086;33.418;2023-12-20T13:20:02;13.95;;;7.75;;
74577;SDS011;63173;49.086;33.418;2023-12-20T13:22:28;15.77;;;8.27;;
74577;SDS011;63173;49.086;33.418;2023-12-20T13:24:54;15.57;;;7.90;;
74577;SDS011;63173;49.086;33.418;2023-12-20T13:27:19;19.08;;;9.90;;
74577;SDS011;63173;49.086;33.418;2023-12-20T13:29:45;16.27;;;7.85;;
74577;SDS011;63173;49.086;33.418;2023-12-20T13:32:10;13.63;;;7.68;;
74577;SDS011;63173;49.086;33.418;2023-12-20T13:34:36;13.55;;;8.15;;
74577;SDS011;63173;49.086;33.418;2023-12-20T13:37:01;12.75;;;7.53;;
74577;SDS011;63173;49.086;33.418;2023-12-20T13:39:26;13.57;;;8.32;;
74577;SDS011;63173;49.086;33.418;2023-12-20T13:41:52;18.75;;;8.98;;
74577;SDS011;63173;49.086;33.418;2023-12-20T13:44:18;15.32;;;7.90;;
74577;SDS011;63173;49.086;33.418;2023-12-20T13:46:43;15.77;;;8.18;;
74577;SDS011;63173;49.086;33.418;2023-12-20T13:49:10;14.50;;;7.95;;
74577;SDS011;63173;49.086;33.418;2023-12-20T13:51:37;17.40;;;9.40;;
74577;SDS011;63173;49.086;33.418;2023-12-20T13:54:03;16.65;;;9.00;;
74577;SDS011;63173;49.086;33.418;2023-12-20T13:56:29;31.92;;;13.73;;
74577;SDS011;63173;49.086;33.418;2023-12-20T13:58:54;19.65;;;9.07;;
74577;SDS011;63173;49.086;33.418;2023-12-20T14:01:20;23.52;;;11.43;;
74577;SDS011;63173;49.086;33.418;2023-12-20T14:03:45;22.23;;;11.48;;
74577;SDS011;63173;49.086;33.418;2023-12-20T14:06:10;25.63;;;11.60;;
74577;SDS011;63173;49.086;33.418;2023-12-20T14:08:36;21.20;;;10.15;;
74577;SDS011;63173;49.086;33.418;2023-12-20T14:11:02;22.40;;;9.48;;
74577;SDS011;63173;49.086;33.418;2023-12-20T14:13:28;18.00;;;8.65;;
74577;SDS011;63173;49.086;33.418;2023-12-20T14:15:53;18.52;;;10.40;;
74577;SDS011;63173;49.086;33.418;2023-12-20T14:18:19;16.38;;;9.55;;
74577;SDS011;63173;49.086;33.418;2023-12-20T14:20:45;22.80;;;10.93;;
74577;SDS011;63173;49.086;33.418;2023-12-20T14:23:12;16.63;;;8.30;;
74577;SDS011;63173;49.086;33.418;2023-12-20T14:25:39;19.10;;;10.60;;